sensor_id;sensor_type;location;lat;lon;timestamp;P1;durP1;ratioP1;P2;durP2;ratioP2
77518;SDS011;66629;47.346;19.038;2023-04-25T00:01:58;1.90;;;1.40;;
77518;SDS011;66629;47.346;19.038;2023-04-25T00:04:24;1.70;;;1.30;;
77518;SDS011;66629;47.346;19.038;2023-04-25T00:06:52;1.55;;;1.45;;
77518;SDS011;66629;47.346;19.038;2023-04-25T00:09:21;1.73;;;1.38;;
77518;SDS011;66629;47.346;19.038;2023-04-25T00:11:47;1.70;;;1.50;;
77518;SDS011;66629;47.346;19.038;2023-04-25T00:14:12;1.30;;;1.20;;
77518;SDS011;66629;47.346;19.038;2023-04-25T00:16:38;1.90;;;1.50;;
77518;SDS011;66629;47.346;19.038;2023-04-25T00:19:04;1.65;;;1.40;;
77518;SDS011;66629;47.346;19.038;2023-04-25T00:21:29;1.30;;;1.20;;
77518;SDS011;66629;47.346;19.038;2023-04-25T00:23:56;3.05;;;1.40;;
77518;SDS011;66629;47.346;19.038;2023-04-25T00:26:22;1.70;;;1.60;;
77518;SDS011;66629;47.346;19.038;2023-04-25T00:28:48;1.90;;;1.27;;
77518;SDS011;66629;47.346;19.038;2023-04-25T00:31:13;1.55;;;1.30;;
77518;SDS011;66629;47.346;19.038;2023-04-25T00:33:39;1.40;;;1.30;;
77518;SDS011;66629;47.346;19.038;2023-04-25T00:36:05;1.70;;;1.60;;
77518;SDS011;66629;47.346;19.038;2023-04-25T00:38:31;2.42;;;1.60;;
77518;SDS011;66629;47.346;19.038;2023-04-25T00:40:56;1.60;;;1.50;;
77518;SDS011;66629;47.346;19.038;2023-04-25T00:43:23;2.63;;;1.65;;
77518;SDS011;66629;47.346;19.038;2023-04-25T00:45:51;1.70;;;1.45;;
77518;SDS011;66629;47.346;19.038;2023-04-25T00:48:17;2.28;;;1.58;;
77518;SDS011;66629;47.346;19.038;2023-04-25T00:50:45;2.03;;;1.58;;
77518;SDS011;66629;47.346;19.038;2023-04-25T00:53:20;2.33;;;1.63;;
77518;SDS011;66629;47.346;19.038;2023-04-25T00:55:46;1.50;;;1.35;;
77518;SDS011;66629;47.346;19.038;2023-04-25T00:58:12;2.00;;;1.52;;
77518;SDS011;66629;47.346;19.038;2023-04-25T01:00:37;2.25;;;1.70;;
77518;SDS011;66629;47.346;19.038;2023-04-25T01:03:04;2.53;;;1.65;;
77518;SDS011;66629;47.346;19.038;2023-04-25T01:05:29;4.30;;;1.85;;
77518;SDS011;66629;47.346;19.038;2023-04-25T01:07:55;1.65;;;1.55;;
77518;SDS011;66629;47.346;19.038;2023-04-25T01:10:20;1.77;;;1.67;;
77518;SDS011;66629;47.346;19.038;2023-04-25T01:12:46;2.42;;;1.80;;
77518;SDS011;66629;47.346;19.038;2023-04-25T01:15:12;3.47;;;2.00;;
77518;SDS011;66629;47.346;19.038;2023-04-25T01:17:37;2.30;;;1.83;;
77518;SDS011;66629;47.346;19.038;2023-04-25T01:20:04;2.90;;;2.10;;
77518;SDS011;66629;47.346;19.038;2023-04-25T01:22:31;2.55;;;2.15;;
77518;SDS011;66629;47.346;19.038;2023-04-25T01:24:57;2.75;;;2.17;;
77518;SDS011;66629;47.346;19.038;2023-04-25T01:27:23;2.80;;;2.28;;
77518;SDS011;66629;47.346;19.038;2023-04-25T01:29:50;3.05;;;2.40;;
77518;SDS011;66629;47.346;19.038;2023-04-25T01:32:16;4.38;;;2.78;;
77518;SDS011;66629;47.346;19.038;2023-04-25T01:34:43;3.40;;;2.38;;
77518;SDS011;66629;47.346;19.038;2023-04-25T01:37:08;3.42;;;2.55;;
77518;SDS011;66629;47.346;19.038;2023-04-25T01:39:34;2.88;;;2.33;;
77518;SDS011;66629;47.346;19.038;2023-04-25T01:42:00;4.07;;;2.30;;
77518;SDS011;66629;47.346;19.038;2023-04-25T01:44:25;3.30;;;2.28;;
77518;SDS011;66629;47.346;19.038;2023-04-25T01:46:51;4.28;;;2.45;;
77518;SDS011;66629;47.346;19.038;2023-04-25T01:49:16;3.97;;;2.28;;
77518;SDS011;66629;47.346;19.038;2023-04-25T01:51:42;2.90;;;2.13;;
77518;SDS011;66629;47.346;19.038;2023-04-25T01:54:08;2.35;;;2.10;;
77518;SDS011;66629;47.346;19.038;2023-04-25T01:56:36;3.20;;;2.10;;
77518;SDS011;66629;47.346;19.038;2023-04-25T01:59:03;2.78;;;2.20;;
77518;SDS011;66629;47.346;19.038;2023-04-25T02:01:29;2.92;;;2.20;;
77518;SDS011;66629;47.346;19.038;2023-04-25T02:03:55;3.40;;;2.28;;
77518;SDS011;66629;47.346;19.038;2023-04-25T02:06:20;4.28;;;2.20;;
77518;SDS011;66629;47.346;19.038;2023-04-25T02:08:46;2.97;;;2.33;;
77518;SDS011;66629;47.346;19.038;2023-04-25T02:11:11;3.53;;;2.60;;
77518;SDS011;66629;47.346;19.038;2023-04-25T02:13:36;3.67;;;1.98;;
77518;SDS011;66629;47.346;19.038;2023-04-25T02:16:02;2.45;;;2.17;;
77518;SDS011;66629;47.346;19.038;2023-04-25T02:18:27;2.90;;;2.35;;
77518;SDS011;66629;47.346;19.038;2023-04-25T02:20:53;3.03;;;2.33;;
77518;SDS011;66629;47.346;19.038;2023-04-25T02:23:18;4.68;;;2.67;;
77518;SDS011;66629;47.346;19.038;2023-04-25T02:25:44;3.13;;;2.30;;
77518;SDS011;66629;47.346;19.038;2023-04-25T02:28:10;2.20;;;2.00;;
77518;SDS011;66629;47.346;19.038;2023-04-25T02:30:36;3.30;;;2.25;;
77518;SDS011;66629;47.346;19.038;2023-04-25T02:33:01;4.20;;;2.38;;
77518;SDS011;66629;47.346;19.038;2023-04-25T02:35:27;2.38;;;1.95;;
77518;SDS011;66629;47.346;19.038;2023-04-25T02:37:52;3.85;;;2.50;;
77518;SDS011;66629;47.346;19.038;2023-04-25T02:40:18;3.40;;;2.78;;
77518;SDS011;66629;47.346;19.038;2023-04-25T02:42:43;3.33;;;2.17;;
77518;SDS011;66629;47.346;19.038;2023-04-25T02:45:10;3.35;;;2.25;;
77518;SDS011;66629;47.346;19.038;2023-04-25T02:47:36;3.03;;;2.30;;
77518;SDS011;66629;47.346;19.038;2023-04-25T02:50:02;3.80;;;2.20;;
77518;SDS011;66629;47.346;19.038;2023-04-25T02:52:27;3.65;;;2.63;;
77518;SDS011;66629;47.346;19.038;2023-04-25T02:54:53;3.13;;;2.65;;
77518;SDS011;66629;47.346;19.038;2023-04-25T02:57:18;4.13;;;2.55;;
77518;SDS011;66629;47.346;19.038;2023-04-25T02:59:44;3.55;;;2.20;;
77518;SDS011;66629;47.346;19.038;2023-04-25T03:02:09;3.25;;;2.60;;
77518;SDS011;66629;47.346;19.038;2023-04-25T03:04:35;3.35;;;2.47;;
77518;SDS011;66629;47.346;19.038;2023-04-25T03:07:00;4.07;;;2.75;;
77518;SDS011;66629;47.346;19.038;2023-04-25T03:09:26;3.03;;;2.40;;
77518;SDS011;66629;47.346;19.038;2023-04-25T03:11:51;4.47;;;2.42;;
77518;SDS011;66629;47.346;19.038;2023-04-25T03:14:17;2.88;;;2.42;;
77518;SDS011;66629;47.346;19.038;2023-04-25T03:16:42;2.83;;;2.17;;
77518;SDS011;66629;47.346;19.038;2023-04-25T03:19:08;3.70;;;2.13;;
77518;SDS011;66629;47.346;19.038;2023-04-25T03:21:34;3.58;;;2.40;;
77518;SDS011;66629;47.346;19.038;2023-04-25T03:24:01;2.88;;;2.28;;
77518;SDS011;66629;47.346;19.038;2023-04-25T03:26:27;4.07;;;2.38;;
77518;SDS011;66629;47.346;19.038;2023-04-25T03:28:53;3.08;;;2.40;;
77518;SDS011;66629;47.346;19.038;2023-04-25T03:31:19;3.45;;;2.33;;
77518;SDS011;66629;47.346;19.038;2023-04-25T03:33:44;4.60;;;2.30;;
77518;SDS011;66629;47.346;19.038;2023-04-25T03:36:10;3.13;;;2.50;;
77518;SDS011;66629;47.346;19.038;2023-04-25T03:38:35;3.92;;;2.47;;
77518;SDS011;66629;47.346;19.038;2023-04-25T03:41:01;3.50;;;2.42;;
77518;SDS011;66629;47.346;19.038;2023-04-25T03:43:26;3.25;;;2.25;;
77518;SDS011;66629;47.346;19.038;2023-04-25T03:45:52;3.28;;;2.50;;
77518;SDS011;66629;47.346;19.038;2023-04-25T03:48:17;2.78;;;2.30;;
77518;SDS011;66629;47.346;19.038;2023-04-25T03:50:43;4.10;;;2.70;;
77518;SDS011;66629;47.346;19.038;2023-04-25T03:53:08;4.80;;;2.65;;
77518;SDS011;66629;47.346;19.038;2023-04-25T03:55:33;3.63;;;2.38;;
77518;SDS011;66629;47.346;19.038;2023-04-25T03:57:59;2.88;;;2.03;;
77518;SDS011;66629;47.346;19.038;2023-04-25T04:00:25;3.10;;;2.28;;
77518;SDS011;66629;47.346;19.038;2023-04-25T04:02:50;3.20;;;2.67;;
77518;SDS011;66629;47.346;19.038;2023-04-25T04:05:16;3.83;;;2.60;;
77518;SDS011;66629;47.346;19.038;2023-04-25T04:07:41;5.43;;;2.60;;
77518;SDS011;66629;47.346;19.038;2023-04-25T04:10:10;4.90;;;2.70;;
77518;SDS011;66629;47.346;19.038;2023-04-25T04:12:36;3.78;;;2.45;;
77518;SDS011;66629;47.346;19.038;2023-04-25T04:15:03;2.88;;;2.20;;
77518;SDS011;66629;47.346;19.038;2023-04-25T04:17:29;3.58;;;2.58;;
77518;SDS011;66629;47.346;19.038;2023-04-25T04:19:55;3.72;;;2.63;;
77518;SDS011;66629;47.346;19.038;2023-04-25T04:22:21;4.18;;;2.67;;
77518;SDS011;66629;47.346;19.038;2023-04-25T04:24:47;6.05;;;3.00;;
77518;SDS011;66629;47.346;19.038;2023-04-25T04:27:14;5.28;;;2.42;;
77518;SDS011;66629;47.346;19.038;2023-04-25T04:29:42;3.97;;;2.30;;
77518;SDS011;66629;47.346;19.038;2023-04-25T04:32:08;4.55;;;3.10;;
77518;SDS011;66629;47.346;19.038;2023-04-25T04:34:33;3.78;;;2.97;;
77518;SDS011;66629;47.346;19.038;2023-04-25T04:37:00;5.82;;;3.03;;
77518;SDS011;66629;47.346;19.038;2023-04-25T04:39:26;4.43;;;2.90;;
77518;SDS011;66629;47.346;19.038;2023-04-25T04:41:51;3.90;;;2.72;;
77518;SDS011;66629;47.346;19.038;2023-04-25T04:44:17;4.45;;;2.90;;
77518;SDS011;66629;47.346;19.038;2023-04-25T04:46:42;5.90;;;3.28;;
77518;SDS011;66629;47.346;19.038;2023-04-25T04:49:09;4.80;;;2.80;;
77518;SDS011;66629;47.346;19.038;2023-04-25T04:51:35;4.35;;;2.90;;
77518;SDS011;66629;47.346;19.038;2023-04-25T04:54:01;4.05;;;2.90;;
77518;SDS011;66629;47.346;19.038;2023-04-25T04:56:30;5.18;;;2.80;;
77518;SDS011;66629;47.346;19.038;2023-04-25T04:58:58;4.88;;;3.45;;
77518;SDS011;66629;47.346;19.038;2023-04-25T05:01:25;4.60;;;2.80;;
77518;SDS011;66629;47.346;19.038;2023-04-25T05:03:51;3.72;;;2.75;;
77518;SDS011;66629;47.346;19.038;2023-04-25T05:06:17;4.50;;;3.40;;
77518;SDS011;66629;47.346;19.038;2023-04-25T05:08:44;3.60;;;3.10;;
77518;SDS011;66629;47.346;19.038;2023-04-25T05:11:09;3.97;;;2.90;;
77518;SDS011;66629;47.346;19.038;2023-04-25T05:13:35;5.63;;;3.40;;
77518;SDS011;66629;47.346;19.038;2023-04-25T05:16:00;4.05;;;3.10;;
77518;SDS011;66629;47.346;19.038;2023-04-25T05:18:26;4.05;;;3.08;;
77518;SDS011;66629;47.346;19.038;2023-04-25T05:20:51;6.82;;;3.78;;
77518;SDS011;66629;47.346;19.038;2023-04-25T05:23:18;4.53;;;3.30;;
77518;SDS011;66629;47.346;19.038;2023-04-25T05:25:43;5.22;;;3.75;;
77518;SDS011;66629;47.346;19.038;2023-04-25T05:28:10;6.00;;;3.65;;
77518;SDS011;66629;47.346;19.038;2023-04-25T05:30:37;5.47;;;3.78;;
77518;SDS011;66629;47.346;19.038;2023-04-25T05:33:02;4.78;;;3.45;;
77518;SDS011;66629;47.346;19.038;2023-04-25T05:35:28;6.97;;;4.05;;
77518;SDS011;66629;47.346;19.038;2023-04-25T05:37:53;6.43;;;4.00;;
77518;SDS011;66629;47.346;19.038;2023-04-25T05:40:19;7.45;;;4.32;;
77518;SDS011;66629;47.346;19.038;2023-04-25T05:42:44;6.43;;;4.40;;
77518;SDS011;66629;47.346;19.038;2023-04-25T05:45:10;6.00;;;4.60;;
77518;SDS011;66629;47.346;19.038;2023-04-25T05:47:35;5.18;;;4.15;;
77518;SDS011;66629;47.346;19.038;2023-04-25T05:50:00;4.70;;;3.72;;
77518;SDS011;66629;47.346;19.038;2023-04-25T05:52:26;7.28;;;4.30;;
77518;SDS011;66629;47.346;19.038;2023-04-25T05:54:52;5.43;;;3.92;;
77518;SDS011;66629;47.346;19.038;2023-04-25T05:57:24;6.82;;;4.53;;
77518;SDS011;66629;47.346;19.038;2023-04-25T05:59:50;4.40;;;3.87;;
77518;SDS011;66629;47.346;19.038;2023-04-25T06:02:17;6.15;;;4.88;;
77518;SDS011;66629;47.346;19.038;2023-04-25T06:04:43;5.55;;;4.45;;
77518;SDS011;66629;47.346;19.038;2023-04-25T06:07:08;6.90;;;4.30;;
77518;SDS011;66629;47.346;19.038;2023-04-25T06:09:34;19.13;;;9.50;;
77518;SDS011;66629;47.346;19.038;2023-04-25T06:11:59;18.40;;;9.82;;
77518;SDS011;66629;47.346;19.038;2023-04-25T06:14:24;13.52;;;7.03;;
77518;SDS011;66629;47.346;19.038;2023-04-25T06:16:50;9.65;;;5.95;;
77518;SDS011;66629;47.346;19.038;2023-04-25T06:19:15;8.30;;;5.70;;
77518;SDS011;66629;47.346;19.038;2023-04-25T06:21:42;11.45;;;6.05;;
77518;SDS011;66629;47.346;19.038;2023-04-25T06:24:08;5.78;;;4.32;;
77518;SDS011;66629;47.346;19.038;2023-04-25T06:26:34;6.75;;;4.53;;
77518;SDS011;66629;47.346;19.038;2023-04-25T06:28:59;7.63;;;4.45;;
77518;SDS011;66629;47.346;19.038;2023-04-25T06:31:25;6.15;;;4.45;;
77518;SDS011;66629;47.346;19.038;2023-04-25T06:33:50;6.80;;;3.78;;
77518;SDS011;66629;47.346;19.038;2023-04-25T06:36:19;6.13;;;4.18;;
77518;SDS011;66629;47.346;19.038;2023-04-25T06:38:49;6.63;;;4.25;;
77518;SDS011;66629;47.346;19.038;2023-04-25T06:41:18;6.13;;;3.95;;
77518;SDS011;66629;47.346;19.038;2023-04-25T06:43:43;5.47;;;3.55;;
77518;SDS011;66629;47.346;19.038;2023-04-25T06:46:09;4.45;;;3.47;;
77518;SDS011;66629;47.346;19.038;2023-04-25T06:48:35;4.75;;;3.33;;
77518;SDS011;66629;47.346;19.038;2023-04-25T06:51:00;5.32;;;3.63;;
77518;SDS011;66629;47.346;19.038;2023-04-25T06:53:26;4.85;;;3.67;;
77518;SDS011;66629;47.346;19.038;2023-04-25T06:55:51;5.25;;;3.50;;
77518;SDS011;66629;47.346;19.038;2023-04-25T06:58:17;4.82;;;3.63;;
77518;SDS011;66629;47.346;19.038;2023-04-25T07:00:42;5.22;;;3.55;;
77518;SDS011;66629;47.346;19.038;2023-04-25T07:03:08;4.18;;;3.30;;
77518;SDS011;66629;47.346;19.038;2023-04-25T07:05:33;4.82;;;3.35;;
77518;SDS011;66629;47.346;19.038;2023-04-25T07:07:59;4.85;;;3.55;;
77518;SDS011;66629;47.346;19.038;2023-04-25T07:10:25;3.85;;;3.20;;
77518;SDS011;66629;47.346;19.038;2023-04-25T07:12:50;5.82;;;3.50;;
77518;SDS011;66629;47.346;19.038;2023-04-25T07:15:16;5.55;;;3.97;;
77518;SDS011;66629;47.346;19.038;2023-04-25T07:17:41;4.30;;;3.38;;
77518;SDS011;66629;47.346;19.038;2023-04-25T07:20:07;5.40;;;3.40;;
77518;SDS011;66629;47.346;19.038;2023-04-25T07:22:34;3.75;;;3.35;;
77518;SDS011;66629;47.346;19.038;2023-04-25T07:24:59;4.95;;;3.20;;
77518;SDS011;66629;47.346;19.038;2023-04-25T07:27:25;4.80;;;3.40;;
77518;SDS011;66629;47.346;19.038;2023-04-25T07:29:50;4.95;;;3.33;;
77518;SDS011;66629;47.346;19.038;2023-04-25T07:32:16;4.13;;;3.42;;
77518;SDS011;66629;47.346;19.038;2023-04-25T07:34:41;3.30;;;2.80;;
77518;SDS011;66629;47.346;19.038;2023-04-25T07:37:07;3.42;;;2.72;;
77518;SDS011;66629;47.346;19.038;2023-04-25T07:39:32;3.70;;;3.03;;
77518;SDS011;66629;47.346;19.038;2023-04-25T07:41:58;3.63;;;3.10;;
77518;SDS011;66629;47.346;19.038;2023-04-25T07:44:23;3.50;;;2.90;;
77518;SDS011;66629;47.346;19.038;2023-04-25T07:46:49;5.07;;;3.13;;
77518;SDS011;66629;47.346;19.038;2023-04-25T07:49:15;4.00;;;2.72;;
77518;SDS011;66629;47.346;19.038;2023-04-25T07:51:40;4.35;;;3.20;;
77518;SDS011;66629;47.346;19.038;2023-04-25T07:54:08;3.95;;;3.00;;
77518;SDS011;66629;47.346;19.038;2023-04-25T07:56:34;3.90;;;2.90;;
77518;SDS011;66629;47.346;19.038;2023-04-25T07:59:00;4.35;;;3.25;;
77518;SDS011;66629;47.346;19.038;2023-04-25T08:01:25;3.85;;;2.92;;
77518;SDS011;66629;47.346;19.038;2023-04-25T08:03:52;3.70;;;2.90;;
77518;SDS011;66629;47.346;19.038;2023-04-25T08:06:17;3.28;;;2.78;;
77518;SDS011;66629;47.346;19.038;2023-04-25T08:08:43;3.25;;;2.53;;
77518;SDS011;66629;47.346;19.038;2023-04-25T08:11:08;3.20;;;2.70;;
77518;SDS011;66629;47.346;19.038;2023-04-25T08:13:34;3.13;;;2.40;;
77518;SDS011;66629;47.346;19.038;2023-04-25T08:16:00;3.05;;;2.33;;
77518;SDS011;66629;47.346;19.038;2023-04-25T08:18:25;3.85;;;2.58;;
77518;SDS011;66629;47.346;19.038;2023-04-25T08:20:51;2.90;;;2.60;;
77518;SDS011;66629;47.346;19.038;2023-04-25T08:23:16;3.17;;;2.50;;
77518;SDS011;66629;47.346;19.038;2023-04-25T08:25:41;3.90;;;2.92;;
77518;SDS011;66629;47.346;19.038;2023-04-25T08:28:07;4.05;;;2.65;;
77518;SDS011;66629;47.346;19.038;2023-04-25T08:30:32;3.05;;;2.40;;
77518;SDS011;66629;47.346;19.038;2023-04-25T08:32:58;4.63;;;2.63;;
77518;SDS011;66629;47.346;19.038;2023-04-25T08:35:23;5.32;;;3.15;;
77518;SDS011;66629;47.346;19.038;2023-04-25T08:37:49;3.65;;;2.80;;
77518;SDS011;66629;47.346;19.038;2023-04-25T08:40:14;3.60;;;2.70;;
77518;SDS011;66629;47.346;19.038;2023-04-25T08:42:41;2.80;;;2.50;;
77518;SDS011;66629;47.346;19.038;2023-04-25T08:45:07;3.65;;;2.97;;
77518;SDS011;66629;47.346;19.038;2023-04-25T08:47:34;3.70;;;2.47;;
77518;SDS011;66629;47.346;19.038;2023-04-25T08:50:03;3.78;;;2.80;;
77518;SDS011;66629;47.346;19.038;2023-04-25T08:52:32;2.90;;;2.53;;
77518;SDS011;66629;47.346;19.038;2023-04-25T08:55:02;3.50;;;2.63;;
77518;SDS011;66629;47.346;19.038;2023-04-25T08:57:29;2.92;;;2.50;;
77518;SDS011;66629;47.346;19.038;2023-04-25T08:59:57;4.40;;;3.05;;
77518;SDS011;66629;47.346;19.038;2023-04-25T09:02:23;3.65;;;2.83;;
77518;SDS011;66629;47.346;19.038;2023-04-25T09:04:49;3.88;;;2.50;;
77518;SDS011;66629;47.346;19.038;2023-04-25T09:07:15;4.10;;;3.25;;
77518;SDS011;66629;47.346;19.038;2023-04-25T09:09:43;3.30;;;2.65;;
77518;SDS011;66629;47.346;19.038;2023-04-25T09:12:09;3.33;;;2.65;;
77518;SDS011;66629;47.346;19.038;2023-04-25T09:14:35;3.40;;;2.88;;
77518;SDS011;66629;47.346;19.038;2023-04-25T09:17:01;3.42;;;2.88;;
77518;SDS011;66629;47.346;19.038;2023-04-25T09:19:31;3.10;;;2.80;;
77518;SDS011;66629;47.346;19.038;2023-04-25T09:22:00;4.55;;;2.90;;
77518;SDS011;66629;47.346;19.038;2023-04-25T09:27:06;3.28;;;2.47;;
77518;SDS011;66629;47.346;19.038;2023-04-25T09:29:34;4.05;;;3.10;;
77518;SDS011;66629;47.346;19.038;2023-04-25T09:32:20;4.32;;;2.75;;
77518;SDS011;66629;47.346;19.038;2023-04-25T09:34:48;4.55;;;3.55;;
77518;SDS011;66629;47.346;19.038;2023-04-25T09:37:21;4.72;;;3.13;;
77518;SDS011;66629;47.346;19.038;2023-04-25T09:39:47;4.80;;;2.78;;
77518;SDS011;66629;47.346;19.038;2023-04-25T09:42:14;3.22;;;2.60;;
77518;SDS011;66629;47.346;19.038;2023-04-25T09:44:45;2.63;;;2.33;;
77518;SDS011;66629;47.346;19.038;2023-04-25T09:47:11;2.53;;;2.20;;
77518;SDS011;66629;47.346;19.038;2023-04-25T09:49:41;3.28;;;2.80;;
77518;SDS011;66629;47.346;19.038;2023-04-25T09:52:07;3.13;;;2.55;;
77518;SDS011;66629;47.346;19.038;2023-04-25T09:54:33;2.83;;;2.50;;
77518;SDS011;66629;47.346;19.038;2023-04-25T09:56:59;3.72;;;2.70;;
77518;SDS011;66629;47.346;19.038;2023-04-25T09:59:32;2.35;;;2.15;;
77518;SDS011;66629;47.346;19.038;2023-04-25T10:02:00;3.00;;;2.30;;
77518;SDS011;66629;47.346;19.038;2023-04-25T10:04:26;2.20;;;2.00;;
77518;SDS011;66629;47.346;19.038;2023-04-25T10:06:53;2.63;;;2.42;;
77518;SDS011;66629;47.346;19.038;2023-04-25T10:09:21;2.95;;;2.13;;
77518;SDS011;66629;47.346;19.038;2023-04-25T10:11:50;2.50;;;2.30;;
77518;SDS011;66629;47.346;19.038;2023-04-25T10:14:16;2.70;;;2.10;;
77518;SDS011;66629;47.346;19.038;2023-04-25T10:16:43;2.67;;;1.90;;
77518;SDS011;66629;47.346;19.038;2023-04-25T10:19:10;3.08;;;2.00;;
77518;SDS011;66629;47.346;19.038;2023-04-25T10:21:36;2.53;;;1.63;;
77518;SDS011;66629;47.346;19.038;2023-04-25T10:24:11;2.05;;;1.85;;
77518;SDS011;66629;47.346;19.038;2023-04-25T10:26:37;1.83;;;1.60;;
77518;SDS011;66629;47.346;19.038;2023-04-25T10:29:03;2.20;;;1.88;;
77518;SDS011;66629;47.346;19.038;2023-04-25T10:31:29;2.05;;;1.63;;
77518;SDS011;66629;47.346;19.038;2023-04-25T10:33:56;1.52;;;1.40;;
77518;SDS011;66629;47.346;19.038;2023-04-25T10:36:22;1.50;;;1.40;;
77518;SDS011;66629;47.346;19.038;2023-04-25T10:38:50;4.05;;;1.60;;
77518;SDS011;66629;47.346;19.038;2023-04-25T10:41:19;1.67;;;1.48;;
77518;SDS011;66629;47.346;19.038;2023-04-25T10:43:46;1.75;;;1.50;;
77518;SDS011;66629;47.346;19.038;2023-04-25T10:46:19;1.50;;;1.40;;
77518;SDS011;66629;47.346;19.038;2023-04-25T10:48:57;1.30;;;1.20;;
77518;SDS011;66629;47.346;19.038;2023-04-25T10:51:27;1.55;;;1.45;;
77518;SDS011;66629;47.346;19.038;2023-04-25T10:54:03;1.30;;;1.20;;
77518;SDS011;66629;47.346;19.038;2023-04-25T10:56:38;1.30;;;1.20;;
77518;SDS011;66629;47.346;19.038;2023-04-25T11:01:40;1.08;;;1.08;;
77518;SDS011;66629;47.346;19.038;2023-04-25T11:09:27;3.13;;;1.10;;
77518;SDS011;66629;47.346;19.038;2023-04-25T11:11:57;2.65;;;1.10;;
77518;SDS011;66629;47.346;19.038;2023-04-25T11:14:23;0.88;;;0.88;;
77518;SDS011;66629;47.346;19.038;2023-04-25T11:16:57;0.80;;;0.80;;
77518;SDS011;66629;47.346;19.038;2023-04-25T11:19:24;0.93;;;0.93;;
77518;SDS011;66629;47.346;19.038;2023-04-25T11:21:50;0.70;;;0.70;;
77518;SDS011;66629;47.346;19.038;2023-04-25T11:24:19;1.20;;;1.10;;
77518;SDS011;66629;47.346;19.038;2023-04-25T11:26:50;1.63;;;1.10;;
77518;SDS011;66629;47.346;19.038;2023-04-25T11:29:15;1.25;;;1.15;;
77518;SDS011;66629;47.346;19.038;2023-04-25T11:31:43;2.30;;;0.80;;
77518;SDS011;66629;47.346;19.038;2023-04-25T11:34:10;0.90;;;0.90;;
77518;SDS011;66629;47.346;19.038;2023-04-25T11:36:36;0.80;;;0.80;;
77518;SDS011;66629;47.346;19.038;2023-04-25T11:39:03;0.95;;;0.95;;
77518;SDS011;66629;47.346;19.038;2023-04-25T11:41:29;1.00;;;0.90;;
77518;SDS011;66629;47.346;19.038;2023-04-25T11:43:55;1.33;;;0.82;;
77518;SDS011;66629;47.346;19.038;2023-04-25T11:46:21;1.05;;;0.95;;
77518;SDS011;66629;47.346;19.038;2023-04-25T11:48:46;1.42;;;0.95;;
77518;SDS011;66629;47.346;19.038;2023-04-25T11:51:12;3.53;;;1.17;;
77518;SDS011;66629;47.346;19.038;2023-04-25T11:53:40;1.38;;;1.10;;
77518;SDS011;66629;47.346;19.038;2023-04-25T11:56:10;1.20;;;1.10;;
77518;SDS011;66629;47.346;19.038;2023-04-25T11:58:55;0.90;;;0.90;;
77518;SDS011;66629;47.346;19.038;2023-04-25T12:01:26;2.72;;;0.90;;
77518;SDS011;66629;47.346;19.038;2023-04-25T12:03:55;1.15;;;1.00;;
77518;SDS011;66629;47.346;19.038;2023-04-25T12:06:21;1.35;;;1.00;;
77518;SDS011;66629;47.346;19.038;2023-04-25T12:08:59;1.33;;;0.93;;
77518;SDS011;66629;47.346;19.038;2023-04-25T12:11:32;1.20;;;1.10;;
77518;SDS011;66629;47.346;19.038;2023-04-25T12:14:03;1.80;;;1.13;;
77518;SDS011;66629;47.346;19.038;2023-04-25T12:16:30;1.10;;;1.00;;
77518;SDS011;66629;47.346;19.038;2023-04-25T12:19:05;1.33;;;1.20;;
77518;SDS011;66629;47.346;19.038;2023-04-25T12:21:31;0.90;;;0.90;;
77518;SDS011;66629;47.346;19.038;2023-04-25T12:24:07;1.20;;;1.10;;
77518;SDS011;66629;47.346;19.038;2023-04-25T12:26:46;1.08;;;1.02;;
77518;SDS011;66629;47.346;19.038;2023-04-25T12:29:18;1.52;;;1.30;;
77518;SDS011;66629;47.346;19.038;2023-04-25T12:31:45;0.90;;;0.90;;
77518;SDS011;66629;47.346;19.038;2023-04-25T12:34:11;1.55;;;1.27;;
77518;SDS011;66629;47.346;19.038;2023-04-25T12:36:37;1.20;;;1.10;;
77518;SDS011;66629;47.346;19.038;2023-04-25T12:39:03;1.00;;;1.00;;
77518;SDS011;66629;47.346;19.038;2023-04-25T12:41:29;1.42;;;1.10;;
77518;SDS011;66629;47.346;19.038;2023-04-25T12:43:55;1.35;;;1.25;;
77518;SDS011;66629;47.346;19.038;2023-04-25T12:46:21;1.15;;;1.05;;
77518;SDS011;66629;47.346;19.038;2023-04-25T12:48:47;0.90;;;0.90;;
77518;SDS011;66629;47.346;19.038;2023-04-25T12:51:13;2.88;;;1.10;;
77518;SDS011;66629;47.346;19.038;2023-04-25T12:53:38;1.10;;;1.00;;
77518;SDS011;66629;47.346;19.038;2023-04-25T12:56:06;1.20;;;1.10;;
77518;SDS011;66629;47.346;19.038;2023-04-25T12:58:34;1.20;;;1.10;;
77518;SDS011;66629;47.346;19.038;2023-04-25T13:01:00;1.65;;;1.27;;
77518;SDS011;66629;47.346;19.038;2023-04-25T13:03:25;1.08;;;0.98;;
77518;SDS011;66629;47.346;19.038;2023-04-25T13:05:51;1.80;;;1.20;;
77518;SDS011;66629;47.346;19.038;2023-04-25T13:08:20;1.67;;;1.25;;
77518;SDS011;66629;47.346;19.038;2023-04-25T13:10:45;1.45;;;1.20;;
77518;SDS011;66629;47.346;19.038;2023-04-25T13:13:12;1.23;;;0.93;;
77518;SDS011;66629;47.346;19.038;2023-04-25T13:15:38;2.30;;;1.33;;
77518;SDS011;66629;47.346;19.038;2023-04-25T13:18:03;1.02;;;1.02;;
77518;SDS011;66629;47.346;19.038;2023-04-25T13:20:32;1.35;;;1.25;;
77518;SDS011;66629;47.346;19.038;2023-04-25T13:22:58;1.02;;;0.90;;
77518;SDS011;66629;47.346;19.038;2023-04-25T13:25:23;1.20;;;1.10;;
77518;SDS011;66629;47.346;19.038;2023-04-25T13:27:49;1.30;;;1.20;;
77518;SDS011;66629;47.346;19.038;2023-04-25T13:30:14;1.20;;;1.10;;
77518;SDS011;66629;47.346;19.038;2023-04-25T13:32:40;1.42;;;1.05;;
77518;SDS011;66629;47.346;19.038;2023-04-25T13:35:07;1.58;;;1.30;;
77518;SDS011;66629;47.346;19.038;2023-04-25T13:37:34;1.48;;;1.10;;
77518;SDS011;66629;47.346;19.038;2023-04-25T13:40:00;1.20;;;1.10;;
77518;SDS011;66629;47.346;19.038;2023-04-25T13:42:29;1.42;;;1.33;;
77518;SDS011;66629;47.346;19.038;2023-04-25T13:44:54;1.30;;;1.20;;
77518;SDS011;66629;47.346;19.038;2023-04-25T13:47:20;1.75;;;1.30;;
77518;SDS011;66629;47.346;19.038;2023-04-25T13:49:45;4.25;;;1.20;;
77518;SDS011;66629;47.346;19.038;2023-04-25T13:52:10;3.58;;;1.40;;
77518;SDS011;66629;47.346;19.038;2023-04-25T13:54:36;2.80;;;1.38;;
77518;SDS011;66629;47.346;19.038;2023-04-25T13:57:01;3.40;;;1.45;;
77518;SDS011;66629;47.346;19.038;2023-04-25T13:59:27;2.05;;;1.55;;
77518;SDS011;66629;47.346;19.038;2023-04-25T14:01:52;2.97;;;1.92;;
77518;SDS011;66629;47.346;19.038;2023-04-25T14:04:18;3.30;;;1.33;;
77518;SDS011;66629;47.346;19.038;2023-04-25T14:06:44;1.50;;;1.13;;
77518;SDS011;66629;47.346;19.038;2023-04-25T14:09:10;1.15;;;1.05;;
77518;SDS011;66629;47.346;19.038;2023-04-25T14:11:38;2.95;;;1.30;;
77518;SDS011;66629;47.346;19.038;2023-04-25T14:14:03;1.30;;;1.20;;
77518;SDS011;66629;47.346;19.038;2023-04-25T14:16:29;1.83;;;1.40;;
77518;SDS011;66629;47.346;19.038;2023-04-25T14:18:56;2.33;;;1.20;;
77518;SDS011;66629;47.346;19.038;2023-04-25T14:21:22;1.48;;;1.20;;
77518;SDS011;66629;47.346;19.038;2023-04-25T14:23:48;1.40;;;1.30;;
77518;SDS011;66629;47.346;19.038;2023-04-25T14:26:13;1.52;;;1.42;;
77518;SDS011;66629;47.346;19.038;2023-04-25T14:28:39;2.53;;;1.52;;
77518;SDS011;66629;47.346;19.038;2023-04-25T14:31:05;4.72;;;1.70;;
77518;SDS011;66629;47.346;19.038;2023-04-25T14:33:30;6.88;;;1.80;;
77518;SDS011;66629;47.346;19.038;2023-04-25T14:35:56;2.10;;;1.63;;
77518;SDS011;66629;47.346;19.038;2023-04-25T14:38:22;1.55;;;1.20;;
77518;SDS011;66629;47.346;19.038;2023-04-25T14:40:50;1.45;;;1.30;;